sensor_id;sensor_type;location;lat;lon;timestamp;temperature;humidity
18575;DHT22;9417;16.484;102.872;2022-07-10T00:01:43;25.90;96.20
18575;DHT22;9417;16.484;102.872;2022-07-10T00:03:50;25.90;96.20
18575;DHT22;9417;16.484;102.872;2022-07-10T00:06:00;26.00;96.10
18575;DHT22;9417;16.484;102.872;2022-07-10T00:08:08;26.00;96.00
18575;DHT22;9417;16.484;102.872;2022-07-10T00:10:15;26.00;95.90
18575;DHT22;9417;16.484;102.872;2022-07-10T00:12:23;26.00;95.90
18575;DHT22;9417;16.484;102.872;2022-07-10T00:14:30;26.00;95.80
18575;DHT22;9417;16.484;102.872;2022-07-10T00:16:37;26.00;95.70
18575;DHT22;9417;16.484;102.872;2022-07-10T00:18:44;26.00;95.50
18575;DHT22;9417;16.484;102.872;2022-07-10T00:20:52;26.00;95.50
18575;DHT22;9417;16.484;102.872;2022-07-10T00:23:01;26.00;95.70
18575;DHT22;9417;16.484;102.872;2022-07-10T00:25:10;26.00;96.00
18575;DHT22;9417;16.484;102.872;2022-07-10T00:27:17;26.00;96.10
18575;DHT22;9417;16.484;102.872;2022-07-10T00:29:25;26.00;96.10
18575;DHT22;9417;16.484;102.872;2022-07-10T00:31:32;26.00;96.00
18575;DHT22;9417;16.484;102.872;2022-07-10T00:33:39;26.00;95.90
18575;DHT22;9417;16.484;102.872;2022-07-10T00:35:46;26.00;95.60
18575;DHT22;9417;16.484;102.872;2022-07-10T00:37:54;26.00;95.60
18575;DHT22;9417;16.484;102.872;2022-07-10T00:40:03;26.00;95.70
18575;DHT22;9417;16.484;102.872;2022-07-10T00:42:12;26.00;95.60
18575;DHT22;9417;16.484;102.872;2022-07-10T00:44:20;26.00;95.60
18575;DHT22;9417;16.484;102.872;2022-07-10T00:46:30;26.10;95.60
18575;DHT22;9417;16.484;102.872;2022-07-10T00:48:38;26.10;95.40
18575;DHT22;9417;16.484;102.872;2022-07-10T00:50:45;26.10;95.40
18575;DHT22;9417;16.484;102.872;2022-07-10T00:52:54;26.20;95.20
18575;DHT22;9417;16.484;102.872;2022-07-10T00:55:03;26.20;94.90
18575;DHT22;9417;16.484;102.872;2022-07-10T00:57:11;26.20;94.80
18575;DHT22;9417;16.484;102.872;2022-07-10T00:59:20;26.30;94.70
18575;DHT22;9417;16.484;102.872;2022-07-10T01:01:29;26.30;94.40
18575;DHT22;9417;16.484;102.872;2022-07-10T01:03:36;26.40;93.80
18575;DHT22;9417;16.484;102.872;2022-07-10T01:05:44;26.40;93.30
18575;DHT22;9417;16.484;102.872;2022-07-10T01:07:51;26.40;93.00
18575;DHT22;9417;16.484;102.872;2022-07-10T01:09:58;26.40;92.60
18575;DHT22;9417;16.484;102.872;2022-07-10T01:12:09;26.50;92.20
18575;DHT22;9417;16.484;102.872;2022-07-10T01:14:17;26.50;92.20
18575;DHT22;9417;16.484;102.872;2022-07-10T01:16:24;26.50;92.30
18575;DHT22;9417;16.484;102.872;2022-07-10T01:18:32;26.50;92.40
18575;DHT22;9417;16.484;102.872;2022-07-10T01:20:39;26.50;92.40
18575;DHT22;9417;16.484;102.872;2022-07-10T01:22:48;26.60;92.40
18575;DHT22;9417;16.484;102.872;2022-07-10T01:24:56;26.70;92.20
18575;DHT22;9417;16.484;102.872;2022-07-10T01:27:03;26.80;92.00
18575;DHT22;9417;16.484;102.872;2022-07-10T01:29:11;26.80;91.80
18575;DHT22;9417;16.484;102.872;2022-07-10T01:31:18;26.90;91.80
18575;DHT22;9417;16.484;102.872;2022-07-10T01:33:26;26.90;91.80
18575;DHT22;9417;16.484;102.872;2022-07-10T01:35:33;26.90;91.60
18575;DHT22;9417;16.484;102.872;2022-07-10T01:37:42;27.00;91.30
18575;DHT22;9417;16.484;102.872;2022-07-10T01:39:51;27.10;91.10
18575;DHT22;9417;16.484;102.872;2022-07-10T01:41:58;27.10;90.90
18575;DHT22;9417;16.484;102.872;2022-07-10T01:44:05;27.10;90.70
18575;DHT22;9417;16.484;102.872;2022-07-10T01:46:13;27.10;90.70
18575;DHT22;9417;16.484;102.872;2022-07-10T01:48:20;27.10;90.50
18575;DHT22;9417;16.484;102.872;2022-07-10T01:50:28;27.20;90.30
18575;DHT22;9417;16.484;102.872;2022-07-10T01:52:36;27.30;89.80
18575;DHT22;9417;16.484;102.872;2022-07-10T01:54:43;27.40;88.80
18575;DHT22;9417;16.484;102.872;2022-07-10T01:56:52;27.40;88.60
18575;DHT22;9417;16.484;102.872;2022-07-10T01:58:59;27.40;89.00
18575;DHT22;9417;16.484;102.872;2022-07-10T02:01:08;27.30;89.10
18575;DHT22;9417;16.484;102.872;2022-07-10T02:03:16;27.30;89.40
18575;DHT22;9417;16.484;102.872;2022-07-10T02:05:39;27.30;89.30
18575;DHT22;9417;16.484;102.872;2022-07-10T02:07:46;27.30;89.00
18575;DHT22;9417;16.484;102.872;2022-07-10T02:09:54;27.40;88.90
18575;DHT22;9417;16.484;102.872;2022-07-10T02:12:03;27.40;88.00
18575;DHT22;9417;16.484;102.872;2022-07-10T02:14:11;27.50;87.80
18575;DHT22;9417;16.484;102.872;2022-07-10T02:16:18;27.60;87.10
18575;DHT22;9417;16.484;102.872;2022-07-10T02:18:25;27.70;87.10
18575;DHT22;9417;16.484;102.872;2022-07-10T02:20:32;27.70;86.50
18575;DHT22;9417;16.484;102.872;2022-07-10T02:22:40;27.80;86.50
18575;DHT22;9417;16.484;102.872;2022-07-10T02:24:47;27.80;86.10
18575;DHT22;9417;16.484;102.872;2022-07-10T02:26:55;27.70;85.90
18575;DHT22;9417;16.484;102.872;2022-07-10T02:29:03;27.70;86.00
18575;DHT22;9417;16.484;102.872;2022-07-10T02:31:11;27.70;85.90
18575;DHT22;9417;16.484;102.872;2022-07-10T02:33:18;27.60;86.00
18575;DHT22;9417;16.484;102.872;2022-07-10T02:35:25;27.70;86.60
18575;DHT22;9417;16.484;102.872;2022-07-10T02:37:33;27.70;86.90
18575;DHT22;9417;16.484;102.872;2022-07-10T02:39:40;27.70;87.20
18575;DHT22;9417;16.484;102.872;2022-07-10T02:41:47;27.70;87.00
18575;DHT22;9417;16.484;102.872;2022-07-10T02:43:55;27.80;86.60
18575;DHT22;9417;16.484;102.872;2022-07-10T02:46:04;27.90;86.20
18575;DHT22;9417;16.484;102.872;2022-07-10T02:48:11;27.90;85.50
18575;DHT22;9417;16.484;102.872;2022-07-10T02:50:19;28.00;85.10
18575;DHT22;9417;16.484;102.872;2022-07-10T02:52:26;28.00;85.10
18575;DHT22;9417;16.484;102.872;2022-07-10T02:54:35;28.10;84.60
18575;DHT22;9417;16.484;102.872;2022-07-10T02:56:42;28.10;84.60
18575;DHT22;9417;16.484;102.872;2022-07-10T02:58:49;28.00;84.50
18575;DHT22;9417;16.484;102.872;2022-07-10T03:00:57;27.90;84.60
18575;DHT22;9417;16.484;102.872;2022-07-10T03:03:06;28.00;85.30
18575;DHT22;9417;16.484;102.872;2022-07-10T03:05:14;28.00;85.30
18575;DHT22;9417;16.484;102.872;2022-07-10T03:07:21;28.00;85.20
18575;DHT22;9417;16.484;102.872;2022-07-10T03:09:28;27.90;84.90
18575;DHT22;9417;16.484;102.872;2022-07-10T03:11:35;27.90;85.00
18575;DHT22;9417;16.484;102.872;2022-07-10T03:13:42;27.90;85.10
18575;DHT22;9417;16.484;102.872;2022-07-10T03:15:50;28.00;85.10
18575;DHT22;9417;16.484;102.872;2022-07-10T03:18:00;28.00;85.00
18575;DHT22;9417;16.484;102.872;2022-07-10T03:20:10;28.10;85.10
18575;DHT22;9417;16.484;102.872;2022-07-10T03:22:17;28.30;84.70
18575;DHT22;9417;16.484;102.872;2022-07-10T03:24:24;28.60;84.10
18575;DHT22;9417;16.484;102.872;2022-07-10T03:26:31;28.80;82.90
18575;DHT22;9417;16.484;102.872;2022-07-10T03:28:38;28.90;82.90
18575;DHT22;9417;16.484;102.872;2022-07-10T03:30:46;29.00;81.90
18575;DHT22;9417;16.484;102.872;2022-07-10T03:32:53;29.00;82.10
18575;DHT22;9417;16.484;102.872;2022-07-10T03:35:01;28.90;82.10
18575;DHT22;9417;16.484;102.872;2022-07-10T03:37:10;28.80;82.10
18575;DHT22;9417;16.484;102.872;2022-07-10T03:39:17;28.80;82.20
18575;DHT22;9417;16.484;102.872;2022-07-10T03:41:24;28.70;82.40
18575;DHT22;9417;16.484;102.872;2022-07-10T03:43:31;28.60;82.70
18575;DHT22;9417;16.484;102.872;2022-07-10T03:45:38;28.50;82.90
18575;DHT22;9417;16.484;102.872;2022-07-10T03:47:46;28.50;82.80
18575;DHT22;9417;16.484;102.872;2022-07-10T03:49:53;28.40;82.80
18575;DHT22;9417;16.484;102.872;2022-07-10T03:52:01;28.30;82.90
18575;DHT22;9417;16.484;102.872;2022-07-10T03:54:10;28.30;83.30
18575;DHT22;9417;16.484;102.872;2022-07-10T03:56:17;28.20;83.50
18575;DHT22;9417;16.484;102.872;2022-07-10T03:58:37;28.10;83.70
18575;DHT22;9417;16.484;102.872;2022-07-10T04:00:45;28.00;84.40
18575;DHT22;9417;16.484;102.872;2022-07-10T04:02:55;28.00;84.70
18575;DHT22;9417;16.484;102.872;2022-07-10T04:05:05;28.00;84.80
18575;DHT22;9417;16.484;102.872;2022-07-10T04:07:13;28.00;85.10
18575;DHT22;9417;16.484;102.872;2022-07-10T04:09:22;27.80;85.40
18575;DHT22;9417;16.484;102.872;2022-07-10T04:11:30;27.80;85.40
18575;DHT22;9417;16.484;102.872;2022-07-10T04:13:37;27.70;85.60
18575;DHT22;9417;16.484;102.872;2022-07-10T04:15:44;27.70;86.00
18575;DHT22;9417;16.484;102.872;2022-07-10T04:17:52;27.70;86.50
18575;DHT22;9417;16.484;102.872;2022-07-10T04:20:00;27.70;86.80
18575;DHT22;9417;16.484;102.872;2022-07-10T04:22:07;27.70;87.30
18575;DHT22;9417;16.484;102.872;2022-07-10T04:24:14;27.70;87.60
18575;DHT22;9417;16.484;102.872;2022-07-10T04:26:23;27.80;87.60
18575;DHT22;9417;16.484;102.872;2022-07-10T04:28:30;27.80;87.60
18575;DHT22;9417;16.484;102.872;2022-07-10T04:30:37;27.90;87.20
18575;DHT22;9417;16.484;102.872;2022-07-10T04:32:46;28.00;87.00
18575;DHT22;9417;16.484;102.872;2022-07-10T04:34:53;28.00;86.90
18575;DHT22;9417;16.484;102.872;2022-07-10T04:37:00;28.10;86.60
18575;DHT22;9417;16.484;102.872;2022-07-10T04:39:07;28.20;85.90
18575;DHT22;9417;16.484;102.872;2022-07-10T04:41:15;28.20;85.90
18575;DHT22;9417;16.484;102.872;2022-07-10T04:43:24;28.30;85.60
18575;DHT22;9417;16.484;102.872;2022-07-10T04:45:31;28.40;84.80
18575;DHT22;9417;16.484;102.872;2022-07-10T04:47:39;28.40;84.00
18575;DHT22;9417;16.484;102.872;2022-07-10T04:49:46;28.40;83.60
18575;DHT22;9417;16.484;102.872;2022-07-10T04:51:53;28.50;83.90
18575;DHT22;9417;16.484;102.872;2022-07-10T04:54:01;28.70;84.40
18575;DHT22;9417;16.484;102.872;2022-07-10T04:56:08;28.80;83.20
18575;DHT22;9417;16.484;102.872;2022-07-10T04:58:15;28.90;82.40
18575;DHT22;9417;16.484;102.872;2022-07-10T05:00:25;29.10;81.10
18575;DHT22;9417;16.484;102.872;2022-07-10T05:02:32;29.30;80.90
18575;DHT22;9417;16.484;102.872;2022-07-10T05:04:39;29.40;79.10
18575;DHT22;9417;16.484;102.872;2022-07-10T05:06:46;29.60;78.70
18575;DHT22;9417;16.484;102.872;2022-07-10T05:08:54;29.80;77.40
18575;DHT22;9417;16.484;102.872;2022-07-10T05:11:01;29.90;77.70
18575;DHT22;9417;16.484;102.872;2022-07-10T05:13:10;29.90;77.30
18575;DHT22;9417;16.484;102.872;2022-07-10T05:15:17;29.90;77.10
18575;DHT22;9417;16.484;102.872;2022-07-10T05:17:26;29.90;77.80
18575;DHT22;9417;16.484;102.872;2022-07-10T05:19:34;29.80;78.00
18575;DHT22;9417;16.484;102.872;2022-07-10T05:21:41;29.80;78.10
18575;DHT22;9417;16.484;102.872;2022-07-10T05:23:49;29.80;78.00
18575;DHT22;9417;16.484;102.872;2022-07-10T05:25:56;29.80;78.20
18575;DHT22;9417;16.484;102.872;2022-07-10T05:28:04;29.70;78.40
18575;DHT22;9417;16.484;102.872;2022-07-10T05:30:11;29.60;77.80
18575;DHT22;9417;16.484;102.872;2022-07-10T05:32:19;29.50;78.70
18575;DHT22;9417;16.484;102.872;2022-07-10T05:34:28;29.50;79.40
18575;DHT22;9417;16.484;102.872;2022-07-10T05:36:35;29.50;79.90
18575;DHT22;9417;16.484;102.872;2022-07-10T05:38:42;29.40;79.30
18575;DHT22;9417;16.484;102.872;2022-07-10T05:40:49;29.40;79.30
18575;DHT22;9417;16.484;102.872;2022-07-10T05:42:57;29.40;79.60
18575;DHT22;9417;16.484;102.872;2022-07-10T05:45:05;29.40;80.20
18575;DHT22;9417;16.484;102.872;2022-07-10T05:47:12;29.40;80.40
18575;DHT22;9417;16.484;102.872;2022-07-10T05:49:19;29.40;80.40
18575;DHT22;9417;16.484;102.872;2022-07-10T05:51:28;29.40;80.30
18575;DHT22;9417;16.484;102.872;2022-07-10T05:53:47;29.40;80.10
18575;DHT22;9417;16.484;102.872;2022-07-10T05:55:54;29.50;80.10
18575;DHT22;9417;16.484;102.872;2022-07-10T05:58:01;29.50;79.80
18575;DHT22;9417;16.484;102.872;2022-07-10T06:00:09;29.60;79.30
18575;DHT22;9417;16.484;102.872;2022-07-10T06:02:16;29.60;78.90
18575;DHT22;9417;16.484;102.872;2022-07-10T06:04:28;29.70;78.70
18575;DHT22;9417;16.484;102.872;2022-07-10T06:06:37;29.70;78.70
18575;DHT22;9417;16.484;102.872;2022-07-10T06:08:45;29.80;78.80
18575;DHT22;9417;16.484;102.872;2022-07-10T06:10:52;29.80;78.90
18575;DHT22;9417;16.484;102.872;2022-07-10T06:13:00;29.80;79.00
18575;DHT22;9417;16.484;102.872;2022-07-10T06:15:08;29.80;79.10
18575;DHT22;9417;16.484;102.872;2022-07-10T06:17:22;29.80;79.10
18575;DHT22;9417;16.484;102.872;2022-07-10T06:19:29;29.80;78.80
18575;DHT22;9417;16.484;102.872;2022-07-10T06:21:38;29.70;78.60
18575;DHT22;9417;16.484;102.872;2022-07-10T06:23:45;29.70;78.90
18575;DHT22;9417;16.484;102.872;2022-07-10T06:25:52;29.70;79.40
18575;DHT22;9417;16.484;102.872;2022-07-10T06:28:00;29.70;79.70
18575;DHT22;9417;16.484;102.872;2022-07-10T06:30:08;29.70;80.00
18575;DHT22;9417;16.484;102.872;2022-07-10T06:32:15;29.70;80.10
18575;DHT22;9417;16.484;102.872;2022-07-10T06:34:23;29.70;80.40
18575;DHT22;9417;16.484;102.872;2022-07-10T06:36:30;29.70;80.20
18575;DHT22;9417;16.484;102.872;2022-07-10T06:38:39;29.70;80.30
18575;DHT22;9417;16.484;102.872;2022-07-10T06:40:48;29.60;80.30
18575;DHT22;9417;16.484;102.872;2022-07-10T06:42:56;29.60;80.20
18575;DHT22;9417;16.484;102.872;2022-07-10T06:45:03;29.60;80.50
18575;DHT22;9417;16.484;102.872;2022-07-10T06:47:12;29.50;80.70
18575;DHT22;9417;16.484;102.872;2022-07-10T06:49:35;29.50;80.90
18575;DHT22;9417;16.484;102.872;2022-07-10T06:51:43;29.50;81.10
18575;DHT22;9417;16.484;102.872;2022-07-10T06:53:52;29.50;81.10
18575;DHT22;9417;16.484;102.872;2022-07-10T06:55:59;29.60;81.30
18575;DHT22;9417;16.484;102.872;2022-07-10T06:58:06;29.60;81.30
18575;DHT22;9417;16.484;102.872;2022-07-10T07:00:14;29.60;81.30
18575;DHT22;9417;16.484;102.872;2022-07-10T07:02:23;29.60;81.60
18575;DHT22;9417;16.484;102.872;2022-07-10T07:04:30;29.60;81.80
18575;DHT22;9417;16.484;102.872;2022-07-10T07:06:38;29.60;82.00
18575;DHT22;9417;16.484;102.872;2022-07-10T07:08:45;29.50;81.80
18575;DHT22;9417;16.484;102.872;2022-07-10T07:10:54;29.50;81.70
18575;DHT22;9417;16.484;102.872;2022-07-10T07:13:02;29.60;81.80
18575;DHT22;9417;16.484;102.872;2022-07-10T07:15:10;29.60;81.40
18575;DHT22;9417;16.484;102.872;2022-07-10T07:17:17;29.60;81.30
18575;DHT22;9417;16.484;102.872;2022-07-10T07:19:30;29.60;81.20
18575;DHT22;9417;16.484;102.872;2022-07-10T07:21:52;29.60;81.00
18575;DHT22;9417;16.484;102.872;2022-07-10T07:24:16;29.70;81.00
18575;DHT22;9417;16.484;102.872;2022-07-10T07:26:26;29.70;80.80
18575;DHT22;9417;16.484;102.872;2022-07-10T07:28:33;29.80;80.60
18575;DHT22;9417;16.484;102.872;2022-07-10T07:30:42;29.80;80.50
18575;DHT22;9417;16.484;102.872;2022-07-10T07:32:49;29.70;80.30
18575;DHT22;9417;16.484;102.872;2022-07-10T07:34:56;29.80;80.40
18575;DHT22;9417;16.484;102.872;2022-07-10T07:37:04;29.80;80.50
18575;DHT22;9417;16.484;102.872;2022-07-10T07:39:11;29.80;80.60
18575;DHT22;9417;16.484;102.872;2022-07-10T07:41:19;29.90;80.50
18575;DHT22;9417;16.484;102.872;2022-07-10T07:43:29;29.90;80.20
18575;DHT22;9417;16.484;102.872;2022-07-10T07:45:36;29.90;79.70
18575;DHT22;9417;16.484;102.872;2022-07-10T07:47:44;29.90;79.40
18575;DHT22;9417;16.484;102.872;2022-07-10T07:49:52;29.90;79.30
18575;DHT22;9417;16.484;102.872;2022-07-10T07:51:59;29.80;79.30
18575;DHT22;9417;16.484;102.872;2022-07-10T07:54:07;29.80;79.10
18575;DHT22;9417;16.484;102.872;2022-07-10T07:56:14;29.80;79.20
18575;DHT22;9417;16.484;102.872;2022-07-10T07:58:22;29.70;79.30
18575;DHT22;9417;16.484;102.872;2022-07-10T08:00:31;29.70;79.10
18575;DHT22;9417;16.484;102.872;2022-07-10T08:02:39;29.70;78.90
18575;DHT22;9417;16.484;102.872;2022-07-10T08:04:46;29.70;78.90
18575;DHT22;9417;16.484;102.872;2022-07-10T08:06:54;29.70;79.00
18575;DHT22;9417;16.484;102.872;2022-07-10T08:09:01;29.70;78.70
18575;DHT22;9417;16.484;102.872;2022-07-10T08:11:08;29.70;78.90
18575;DHT22;9417;16.484;102.872;2022-07-10T08:13:15;29.70;79.20
18575;DHT22;9417;16.484;102.872;2022-07-10T08:15:23;29.70;78.90
18575;DHT22;9417;16.484;102.872;2022-07-10T08:17:31;29.70;78.70
18575;DHT22;9417;16.484;102.872;2022-07-10T08:19:39;29.70;79.00
18575;DHT22;9417;16.484;102.872;2022-07-10T08:21:52;29.80;78.60
18575;DHT22;9417;16.484;102.872;2022-07-10T08:23:59;29.90;77.90
18575;DHT22;9417;16.484;102.872;2022-07-10T08:26:07;29.90;77.30
18575;DHT22;9417;16.484;102.872;2022-07-10T08:28:14;30.00;77.20
18575;DHT22;9417;16.484;102.872;2022-07-10T08:30:26;30.00;76.90
18575;DHT22;9417;16.484;102.872;2022-07-10T08:32:54;30.10;76.60
18575;DHT22;9417;16.484;102.872;2022-07-10T08:35:02;30.20;76.10
18575;DHT22;9417;16.484;102.872;2022-07-10T08:37:09;30.30;76.00
18575;DHT22;9417;16.484;102.872;2022-07-10T08:39:17;30.40;75.60
18575;DHT22;9417;16.484;102.872;2022-07-10T08:41:26;30.40;74.80
18575;DHT22;9417;16.484;102.872;2022-07-10T08:43:34;30.40;74.80
18575;DHT22;9417;16.484;102.872;2022-07-10T08:45:42;30.40;74.50
18575;DHT22;9417;16.484;102.872;2022-07-10T08:47:50;30.40;74.60
18575;DHT22;9417;16.484;102.872;2022-07-10T08:49:59;30.40;74.80
18575;DHT22;9417;16.484;102.872;2022-07-10T08:52:08;30.40;74.90
18575;DHT22;9417;16.484;102.872;2022-07-10T08:54:45;30.30;74.90
18575;DHT22;9417;16.484;102.872;2022-07-10T08:56:52;30.20;74.50
18575;DHT22;9417;16.484;102.872;2022-07-10T08:59:00;30.10;74.80
18575;DHT22;9417;16.484;102.872;2022-07-10T09:01:07;30.10;75.60
18575;DHT22;9417;16.484;102.872;2022-07-10T09:03:14;30.00;75.80
18575;DHT22;9417;16.484;102.872;2022-07-10T09:05:24;30.00;75.80
18575;DHT22;9417;16.484;102.872;2022-07-10T09:07:35;30.00;76.30
18575;DHT22;9417;16.484;102.872;2022-07-10T09:09:54;29.90;76.60
18575;DHT22;9417;16.484;102.872;2022-07-10T09:12:03;29.80;76.90
18575;DHT22;9417;16.484;102.872;2022-07-10T09:14:11;29.70;76.80
18575;DHT22;9417;16.484;102.872;2022-07-10T09:16:36;29.70;77.20
18575;DHT22;9417;16.484;102.872;2022-07-10T09:18:44;29.60;78.00
18575;DHT22;9417;16.484;102.872;2022-07-10T09:20:53;29.60;77.90
18575;DHT22;9417;16.484;102.872;2022-07-10T09:23:16;29.50;78.40
18575;DHT22;9417;16.484;102.872;2022-07-10T09:25:30;29.60;79.00
18575;DHT22;9417;16.484;102.872;2022-07-10T09:27:51;29.50;79.20
18575;DHT22;9417;16.484;102.872;2022-07-10T09:30:00;29.50;79.70
18575;DHT22;9417;16.484;102.872;2022-07-10T09:32:08;29.50;79.70
18575;DHT22;9417;16.484;102.872;2022-07-10T09:34:15;29.40;78.90
18575;DHT22;9417;16.484;102.872;2022-07-10T09:36:25;29.40;78.10
18575;DHT22;9417;16.484;102.872;2022-07-10T09:38:52;29.30;78.60
18575;DHT22;9417;16.484;102.872;2022-07-10T09:41:12;29.30;78.20
18575;DHT22;9417;16.484;102.872;2022-07-10T09:43:19;29.30;78.60
18575;DHT22;9417;16.484;102.872;2022-07-10T09:45:27;29.40;78.80
18575;DHT22;9417;16.484;102.872;2022-07-10T09:47:34;29.40;78.70
18575;DHT22;9417;16.484;102.872;2022-07-10T09:49:41;29.30;78.70
18575;DHT22;9417;16.484;102.872;2022-07-10T09:51:50;29.30;78.90
18575;DHT22;9417;16.484;102.872;2022-07-10T09:54:01;29.20;79.00
18575;DHT22;9417;16.484;102.872;2022-07-10T09:56:10;29.10;79.50
18575;DHT22;9417;16.484;102.872;2022-07-10T09:58:19;29.00;79.50
18575;DHT22;9417;16.484;102.872;2022-07-10T10:00:30;28.80;79.80
18575;DHT22;9417;16.484;102.872;2022-07-10T10:02:39;28.80;80.20
18575;DHT22;9417;16.484;102.872;2022-07-10T10:04:47;28.80;80.30
18575;DHT22;9417;16.484;102.872;2022-07-10T10:06:57;28.70;80.60
18575;DHT22;9417;16.484;102.872;2022-07-10T10:09:06;28.70;80.40
18575;DHT22;9417;16.484;102.872;2022-07-10T10:11:18;28.60;81.00
18575;DHT22;9417;16.484;102.872;2022-07-10T10:13:27;28.60;80.80
18575;DHT22;9417;16.484;102.872;2022-07-10T10:15:35;28.60;80.40
18575;DHT22;9417;16.484;102.872;2022-07-10T10:17:45;28.60;80.50
18575;DHT22;9417;16.484;102.872;2022-07-10T10:19:53;28.50;80.50
18575;DHT22;9417;16.484;102.872;2022-07-10T10:22:19;28.60;80.70
18575;DHT22;9417;16.484;102.872;2022-07-10T10:24:32;28.60;80.90
18575;DHT22;9417;16.484;102.872;2022-07-10T10:26:40;28.60;80.80
18575;DHT22;9417;16.484;102.872;2022-07-10T10:28:48;28.60;81.10
18575;DHT22;9417;16.484;102.872;2022-07-10T10:30:57;28.50;81.10
18575;DHT22;9417;16.484;102.872;2022-07-10T10:33:05;28.40;81.60
18575;DHT22;9417;16.484;102.872;2022-07-10T10:35:45;28.40;81.90
18575;DHT22;9417;16.484;102.872;2022-07-10T10:37:55;28.30;81.80
18575;DHT22;9417;16.484;102.872;2022-07-10T10:40:02;28.20;82.30
18575;DHT22;9417;16.484;102.872;2022-07-10T10:42:33;28.20;82.50
18575;DHT22;9417;16.484;102.872;2022-07-10T10:44:40;28.30;83.10
18575;DHT22;9417;16.484;102.872;2022-07-10T10:46:58;28.10;83.20
18575;DHT22;9417;16.484;102.872;2022-07-10T10:49:10;28.10;83.50
18575;DHT22;9417;16.484;102.872;2022-07-10T10:51:18;28.10;83.50
18575;DHT22;9417;16.484;102.872;2022-07-10T10:53:28;28.10;83.80
18575;DHT22;9417;16.484;102.872;2022-07-10T10:55:36;28.10;84.00
18575;DHT22;9417;16.484;102.872;2022-07-10T10:57:44;28.10;83.90
18575;DHT22;9417;16.484;102.872;2022-07-10T10:59:57;28.00;83.50
18575;DHT22;9417;16.484;102.872;2022-07-10T11:02:22;28.00;83.80
18575;DHT22;9417;16.484;102.872;2022-07-10T11:04:30;28.00;84.10
18575;DHT22;9417;16.484;102.872;2022-07-10T11:06:41;28.10;84.20
18575;DHT22;9417;16.484;102.872;2022-07-10T11:08:50;28.20;84.20
18575;DHT22;9417;16.484;102.872;2022-07-10T11:11:37;28.20;84.10
18575;DHT22;9417;16.484;102.872;2022-07-10T11:13:46;28.20;83.90
18575;DHT22;9417;16.484;102.872;2022-07-10T11:16:16;28.20;83.80
18575;DHT22;9417;16.484;102.872;2022-07-10T11:18:34;28.20;84.30
18575;DHT22;9417;16.484;102.872;2022-07-10T11:20:45;28.10;84.40
18575;DHT22;9417;16.484;102.872;2022-07-10T11:23:06;28.10;84.50
18575;DHT22;9417;16.484;102.872;2022-07-10T11:25:36;28.10;84.40
18575;DHT22;9417;16.484;102.872;2022-07-10T11:28:04;28.10;84.60
18575;DHT22;9417;16.484;102.872;2022-07-10T11:30:46;28.10;84.80
18575;DHT22;9417;16.484;102.872;2022-07-10T11:33:05;28.10;84.30
18575;DHT22;9417;16.484;102.872;2022-07-10T11:35:32;28.00;83.60
18575;DHT22;9417;16.484;102.872;2022-07-10T11:37:52;28.00;83.80
18575;DHT22;9417;16.484;102.872;2022-07-10T11:40:10;27.90;83.80
18575;DHT22;9417;16.484;102.872;2022-07-10T11:42:20;27.90;84.10
18575;DHT22;9417;16.484;102.872;2022-07-10T11:44:31;27.80;84.50
18575;DHT22;9417;16.484;102.872;2022-07-10T11:46:52;27.80;84.90
18575;DHT22;9417;16.484;102.872;2022-07-10T11:49:03;27.80;85.30
18575;DHT22;9417;16.484;102.872;2022-07-10T11:51:26;27.80;85.50
18575;DHT22;9417;16.484;102.872;2022-07-10T11:53:34;27.80;85.60
18575;DHT22;9417;16.484;102.872;2022-07-10T11:55:41;27.70;85.70
18575;DHT22;9417;16.484;102.872;2022-07-10T11:57:51;27.70;85.80
18575;DHT22;9417;16.484;102.872;2022-07-10T11:59:59;27.70;86.00
18575;DHT22;9417;16.484;102.872;2022-07-10T12:02:22;27.70;86.30
18575;DHT22;9417;16.484;102.872;2022-07-10T12:04:30;27.70;86.50
18575;DHT22;9417;16.484;102.872;2022-07-10T12:06:38;27.70;86.70
18575;DHT22;9417;16.484;102.872;2022-07-10T12:08:46;27.60;86.80
18575;DHT22;9417;16.484;102.872;2022-07-10T12:10:54;27.50;86.80
18575;DHT22;9417;16.484;102.872;2022-07-10T12:13:07;27.50;86.80
18575;DHT22;9417;16.484;102.872;2022-07-10T12:15:33;27.50;87.00
18575;DHT22;9417;16.484;102.872;2022-07-10T12:17:50;27.50;87.40
18575;DHT22;9417;16.484;102.872;2022-07-10T12:19:58;27.50;87.30
18575;DHT22;9417;16.484;102.872;2022-07-10T12:22:06;27.50;87.20
18575;DHT22;9417;16.484;102.872;2022-07-10T12:24:15;27.60;87.40
18575;DHT22;9417;16.484;102.872;2022-07-10T12:26:32;27.50;87.50
18575;DHT22;9417;16.484;102.872;2022-07-10T12:28:54;27.50;87.40
18575;DHT22;9417;16.484;102.872;2022-07-10T12:31:03;27.50;87.70
18575;DHT22;9417;16.484;102.872;2022-07-10T12:33:12;27.40;87.80
18575;DHT22;9417;16.484;102.872;2022-07-10T12:35:26;27.30;88.10
18575;DHT22;9417;16.484;102.872;2022-07-10T12:37:33;27.30;88.20
18575;DHT22;9417;16.484;102.872;2022-07-10T12:39:48;27.30;88.30
18575;DHT22;9417;16.484;102.872;2022-07-10T12:41:59;27.40;88.50
18575;DHT22;9417;16.484;102.872;2022-07-10T12:44:10;27.40;88.60
18575;DHT22;9417;16.484;102.872;2022-07-10T12:46:19;27.40;88.50
18575;DHT22;9417;16.484;102.872;2022-07-10T12:48:32;27.40;88.60
18575;DHT22;9417;16.484;102.872;2022-07-10T12:50:39;27.30;88.60
18575;DHT22;9417;16.484;102.872;2022-07-10T12:52:47;27.20;88.80
18575;DHT22;9417;16.484;102.872;2022-07-10T12:55:12;27.20;88.60
18575;DHT22;9417;16.484;102.872;2022-07-10T12:57:20;27.20;88.40
18575;DHT22;9417;16.484;102.872;2022-07-10T12:59:29;27.20;88.40
18575;DHT22;9417;16.484;102.872;2022-07-10T13:01:43;27.20;88.60
18575;DHT22;9417;16.484;102.872;2022-07-10T13:04:00;27.30;88.90
18575;DHT22;9417;16.484;102.872;2022-07-10T13:06:26;27.30;89.30
18575;DHT22;9417;16.484;102.872;2022-07-10T13:08:45;27.20;90.20
18575;DHT22;9417;16.484;102.872;2022-07-10T13:10:53;27.20;90.50
18575;DHT22;9417;16.484;102.872;2022-07-10T13:13:00;27.20;90.50
18575;DHT22;9417;16.484;102.872;2022-07-10T13:15:10;27.10;90.70
18575;DHT22;9417;16.484;102.872;2022-07-10T13:17:26;27.20;90.70
18575;DHT22;9417;16.484;102.872;2022-07-10T13:19:33;27.10;90.80
18575;DHT22;9417;16.484;102.872;2022-07-10T13:21:40;27.20;91.00
18575;DHT22;9417;16.484;102.872;2022-07-10T13:23:48;27.20;91.10
18575;DHT22;9417;16.484;102.872;2022-07-10T13:25:56;27.20;91.00
18575;DHT22;9417;16.484;102.872;2022-07-10T13:28:03;27.20;91.20